Time;durP1;ratioP1;P1;durP2;ratioP2;P2;SDS_P1;SDS_P2;PMS_P1;PMS_P2;Temp;Humidity;BMP_temperature;BMP_pressure;BME280_temperature;BME280_humidity;BME280_pressure;Samples;Min_cycle;Max_cycle;Signal;HPM_P1;HPM_P2
2022/07/17 00:00:44;;;;;;;0.57;0.57;;;14.80;86.80;;;;;;5046901;28;20025;-89
2022/07/17 00:03:15;;;;;;;1.35;0.68;;;14.80;88.50;;;;;;5047775;28;20029;-89
2022/07/17 00:05:42;;;;;;;1.95;0.50;;;14.70;87.50;;;;;;5051131;28;20033;-89
2022/07/17 00:08:09;;;;;;;0.40;0.40;;;14.70;87.90;;;;;;5050693;28;20029;-88
2022/07/17 00:10:36;;;;;;;0.63;0.60;;;14.60;87.90;;;;;;5051690;28;20104;-89
2022/07/17 00:13:01;;;;;;;0.75;0.52;;;14.50;89.00;;;;;;5052063;28;20052;-89
2022/07/17 00:15:27;;;;;;;1.90;0.63;;;14.50;89.60;;;;;;5045710;28;20025;-88
2022/07/17 00:17:53;;;;;;;0.50;0.50;;;14.50;89.00;;;;;;5042561;28;20098;-88
2022/07/17 00:20:18;;;;;;;0.55;0.50;;;14.60;89.70;;;;;;5053587;28;20099;-88
2022/07/17 00:22:44;;;;;;;0.50;0.47;;;14.60;89.40;;;;;;5053993;28;20024;-89
2022/07/17 00:25:10;;;;;;;0.40;0.40;;;14.50;89.90;;;;;;5041109;28;20017;-88
2022/07/17 00:27:37;;;;;;;0.30;0.30;;;14.50;89.50;;;;;;5052311;28;20024;-88
2022/07/17 00:30:04;;;;;;;0.70;0.47;;;14.50;89.60;;;;;;5050778;28;20083;-88
2022/07/17 00:32:29;;;;;;;1.65;0.45;;;14.40;90.10;;;;;;5050444;28;20060;-88
2022/07/17 00:34:55;;;;;;;0.85;0.47;;;14.40;90.50;;;;;;5046287;28;20056;-88
2022/07/17 00:37:21;;;;;;;0.30;0.30;;;14.40;91.30;;;;;;5047451;28;20021;-88
2022/07/17 00:39:46;;;;;;;0.30;0.30;;;14.40;91.50;;;;;;5044639;28;20067;-88
2022/07/17 00:42:13;;;;;;;0.63;0.63;;;14.30;92.20;;;;;;5043494;28;20029;-87
2022/07/17 00:44:42;;;;;;;0.77;0.63;;;14.20;91.60;;;;;;5043866;28;20029;-88
2022/07/17 00:47:19;;;;;;;0.50;0.50;;;14.30;92.70;;;;;;5041123;28;20036;-88
2022/07/17 00:49:46;;;;;;;0.40;0.40;;;14.20;91.60;;;;;;5039624;28;20017;-88
2022/07/17 00:52:13;;;;;;;0.30;0.30;;;14.20;91.70;;;;;;5042890;28;20025;-89
2022/07/17 00:54:40;;;;;;;0.45;0.45;;;14.20;92.40;;;;;;5044084;28;20132;-88
2022/07/17 00:57:08;;;;;;;0.73;0.60;;;14.20;91.80;;;;;;5048887;28;20037;-88
2022/07/17 00:59:35;;;;;;;0.98;0.60;;;14.20;92.50;;;;;;5048632;28;20029;-87
2022/07/17 01:02:08;;;;;;;1.60;1.10;;;14.20;92.20;;;;;;5050093;28;20457;-88
2022/07/17 01:04:34;;;;;;;6.45;0.30;;;14.10;92.00;;;;;;5044564;28;20025;-88
2022/07/17 01:07:00;;;;;;;0.52;0.52;;;14.10;92.20;;;;;;5051898;28;20071;-87
2022/07/17 01:09:30;;;;;;;0.30;0.30;;;14.10;92.10;;;;;;5050867;28;20021;-86
2022/07/17 01:11:55;;;;;;;2.00;1.20;;;14.00;92.10;;;;;;5050872;28;20100;-88
2022/07/17 01:14:23;;;;;;;1.58;0.52;;;14.00;92.30;;;;;;5049196;28;20024;-87
2022/07/17 01:16:49;;;;;;;0.57;0.57;;;14.00;92.70;;;;;;5051056;28;20031;-89
2022/07/17 01:19:15;;;;;;;0.55;0.55;;;14.00;92.60;;;;;;5050820;28;20507;-87
2022/07/17 01:21:42;;;;;;;0.47;0.47;;;13.90;92.70;;;;;;5050766;28;20029;-88
2022/07/17 01:24:08;;;;;;;1.15;0.80;;;13.90;92.90;;;;;;5050469;28;20052;-87
2022/07/17 01:26:34;;;;;;;3.50;1.02;;;13.80;93.10;;;;;;5047371;28;20052;-88
2022/07/17 01:28:59;;;;;;;0.68;0.47;;;13.90;93.50;;;;;;5051310;28;20033;-88
2022/07/17 01:31:25;;;;;;;0.98;0.43;;;13.80;93.60;;;;;;5049898;28;20482;-88
2022/07/17 01:33:50;;;;;;;0.55;0.55;;;13.80;93.40;;;;;;5050135;28;20021;-88
2022/07/17 01:36:16;;;;;;;0.35;0.35;;;13.80;93.40;;;;;;5049217;28;20415;-86
2022/07/17 01:38:41;;;;;;;2.80;0.80;;;13.80;93.60;;;;;;5049511;28;20033;-88
2022/07/17 01:41:06;;;;;;;2.40;0.50;;;13.80;93.90;;;;;;5050130;28;20710;-89
2022/07/17 01:43:32;;;;;;;2.85;1.17;;;13.70;94.20;;;;;;5049060;28;20051;-88
2022/07/17 01:45:57;;;;;;;0.30;0.30;;;13.70;94.00;;;;;;5048101;28;20028;-88
2022/07/17 01:48:25;;;;;;;0.50;0.50;;;13.70;94.20;;;;;;5049267;28;20037;-88
2022/07/17 01:50:51;;;;;;;0.57;0.52;;;13.60;94.20;;;;;;5050277;28;20040;-87
2022/07/17 01:53:16;;;;;;;4.03;0.43;;;13.60;94.90;;;;;;5050184;28;20074;-87
2022/07/17 01:55:42;;;;;;;11.60;1.00;;;13.60;94.80;;;;;;5048408;28;20400;-88
2022/07/17 01:58:07;;;;;;;0.68;0.65;;;13.60;94.90;;;;;;5049883;28;20086;-88
2022/07/17 02:00:33;;;;;;;0.75;0.75;;;13.50;94.90;;;;;;5049094;28;20039;-87
2022/07/17 02:02:58;;;;;;;0.65;0.65;;;13.40;95.70;;;;;;5038693;28;20098;-87
2022/07/17 02:05:24;;;;;;;0.65;0.52;;;13.50;95.60;;;;;;5048324;28;20028;-87
2022/07/17 02:07:49;;;;;;;0.40;0.40;;;13.50;96.20;;;;;;5049464;28;20088;-87
2022/07/17 02:10:15;;;;;;;0.30;0.30;;;13.40;96.10;;;;;;5049416;28;20075;-88
2022/07/17 02:12:42;;;;;;;0.85;0.73;;;13.30;96.50;;;;;;5053394;28;20021;-89
2022/07/17 02:15:07;;;;;;;0.50;0.50;;;13.30;96.50;;;;;;5054205;28;20484;-87
2022/07/17 02:17:33;;;;;;;0.40;0.40;;;13.30;96.40;;;;;;5052066;28;20089;-90
2022/07/17 02:19:58;;;;;;;1.08;0.40;;;13.30;96.40;;;;;;5049589;28;20073;-87
2022/07/17 02:22:24;;;;;;;0.57;0.40;;;13.30;96.40;;;;;;5050923;28;20479;-88
2022/07/17 02:24:49;;;;;;;0.47;0.47;;;13.20;96.60;;;;;;5049120;28;20044;-88
2022/07/17 02:27:15;;;;;;;0.73;0.28;;;13.20;97.10;;;;;;5042548;28;20025;-88
2022/07/17 02:29:40;;;;;;;5.07;0.98;;;13.20;97.60;;;;;;5049323;28;20060;-87
2022/07/17 02:32:06;;;;;;;0.25;0.25;;;13.10;97.40;;;;;;5049738;28;20029;-86
2022/07/17 02:34:31;;;;;;;1.58;0.63;;;13.10;98.10;;;;;;5048260;28;20033;-86
2022/07/17 02:36:57;;;;;;;1.05;0.80;;;13.10;97.90;;;;;;5048618;28;20041;-89
2022/07/17 02:39:22;;;;;;;2.72;0.55;;;13.10;97.90;;;;;;5049867;28;20475;-88
2022/07/17 02:41:47;;;;;;;0.30;0.30;;;13.10;98.00;;;;;;5050111;28;20529;-88
2022/07/17 02:44:13;;;;;;;0.60;0.60;;;13.10;98.00;;;;;;5050211;28;20100;-85
2022/07/17 02:46:38;;;;;;;0.55;0.50;;;13.10;98.00;;;;;;5050611;28;20029;-90
2022/07/17 02:49:04;;;;;;;0.20;0.20;;;13.10;98.30;;;;;;5043248;28;20029;-88
2022/07/17 02:51:29;;;;;;;0.40;0.40;;;13.10;98.20;;;;;;5048170;28;20514;-89
2022/07/17 02:53:55;;;;;;;0.80;0.30;;;13.20;98.30;;;;;;5049063;28;20033;-87
2022/07/17 02:56:20;;;;;;;0.52;0.40;;;13.20;98.30;;;;;;5048902;28;20033;-88
2022/07/17 02:58:46;;;;;;;0.45;0.43;;;13.10;98.90;;;;;;5049326;28;20052;-88
2022/07/17 03:01:11;;;;;;;0.90;0.50;;;13.10;98.70;;;;;;5049814;28;20086;-88
2022/07/17 03:03:37;;;;;;;0.52;0.52;;;13.10;98.70;;;;;;5050149;28;20040;-87
2022/07/17 03:06:02;;;;;;;0.70;0.50;;;13.00;99.10;;;;;;5054276;28;20021;-92
2022/07/17 03:08:33;;;;;;;0.25;0.25;;;13.10;99.00;;;;;;5052545;28;20142;-88
2022/07/17 03:10:59;;;;;;;;;;;13.10;99.00;;;;;;5052918;28;20025;-88
2022/07/17 03:13:24;;;;;;;3.15;0.57;;;13.00;99.10;;;;;;5052619;28;20257;-87
2022/07/17 03:15:50;;;;;;;0.80;0.80;;;12.90;99.20;;;;;;5053339;28;20436;-89
2022/07/17 03:18:15;;;;;;;1.35;0.43;;;12.90;99.20;;;;;;5053137;28;20084;-89
2022/07/17 03:20:41;;;;;;;0.43;0.43;;;12.90;99.30;;;;;;5046352;28;20136;-88
2022/07/17 03:23:06;;;;;;;0.32;0.32;;;12.90;99.70;;;;;;5052220;28;20029;-89
2022/07/17 03:25:32;;;;;;;1.67;0.60;;;12.90;99.90;;;;;;5044213;28;20022;-88
2022/07/17 03:27:57;;;;;;;0.30;0.30;;;12.90;99.90;;;;;;5052456;28;20648;-89
2022/07/17 03:30:23;;;;;;;1.02;0.40;;;12.90;99.90;;;;;;5053248;28;20029;-89
2022/07/17 03:32:48;;;;;;;1.48;0.98;;;12.90;99.90;;;;;;5052789;28;20014;-88
2022/07/17 03:35:14;;;;;;;1.13;0.60;;;12.90;99.90;;;;;;5051708;28;20017;-85
2022/07/17 03:37:39;;;;;;;0.40;0.40;;;12.90;99.90;;;;;;5051164;28;20379;-87
2022/07/17 03:40:06;;;;;;;1.55;0.90;;;12.90;99.90;;;;;;5051364;28;20361;-88
2022/07/17 03:42:32;;;;;;;0.60;0.60;;;12.90;99.90;;;;;;5042428;28;20079;-89
2022/07/17 03:44:57;;;;;;;0.30;0.30;;;12.80;99.90;;;;;;5054097;28;20444;-89
2022/07/17 03:47:23;;;;;;;0.50;0.50;;;12.80;99.90;;;;;;5052846;28;20057;-86
2022/07/17 03:49:48;;;;;;;3.03;0.88;;;12.90;99.90;;;;;;5054117;28;20033;-89
2022/07/17 03:52:14;;;;;;;1.05;0.40;;;12.90;99.90;;;;;;5055160;28;20430;-89
2022/07/17 03:54:40;;;;;;;1.45;0.50;;;12.90;99.90;;;;;;5052534;28;20052;-88
2022/07/17 03:57:05;;;;;;;0.50;0.50;;;12.90;99.90;;;;;;5054661;28;20029;-89
2022/07/17 03:59:31;;;;;;;0.68;0.45;;;12.90;99.90;;;;;;5054087;28;20040;-89
2022/07/17 04:01:56;;;;;;;1.75;1.02;;;12.80;99.90;;;;;;5052792;28;20040;-89
2022/07/17 04:04:22;;;;;;;0.52;0.52;;;12.90;99.90;;;;;;5056750;28;20028;-89
2022/07/17 04:06:47;;;;;;;0.50;0.43;;;12.90;99.90;;;;;;5055385;28;20116;-90
2022/07/17 04:09:13;;;;;;;0.90;0.43;;;12.90;99.90;;;;;;5049374;28;20082;-91
2022/07/17 04:11:38;;;;;;;1.38;0.60;;;12.80;99.90;;;;;;5053559;28;20506;-87
2022/07/17 04:14:04;;;;;;;0.40;0.30;;;12.80;99.90;;;;;;5049483;28;20025;-89
2022/07/17 04:16:29;;;;;;;0.40;0.35;;;12.90;99.90;;;;;;5043585;28;20108;-90
2022/07/17 04:18:54;;;;;;;4.40;0.60;;;13.00;99.90;;;;;;5052855;28;20032;-89
2022/07/17 04:21:20;;;;;;;1.95;1.20;;;13.00;99.90;;;;;;5049164;28;20282;-85
2022/07/17 04:23:45;;;;;;;0.80;0.73;;;13.10;99.90;;;;;;5052169;28;20028;-89
2022/07/17 04:26:11;;;;;;;0.73;0.30;;;13.10;99.90;;;;;;5047548;28;20032;-88
2022/07/17 04:28:40;;;;;;;0.85;0.40;;;13.00;99.90;;;;;;5062562;28;20040;-90
2022/07/17 04:31:05;;;;;;;1.52;0.50;;;12.90;99.90;;;;;;5049927;28;20051;-90
2022/07/17 04:33:31;;;;;;;2.70;0.88;;;13.00;99.90;;;;;;5052483;28;20528;-88
2022/07/17 04:35:57;;;;;;;0.50;0.50;;;13.10;99.90;;;;;;5047710;28;20513;-89
2022/07/17 04:38:22;;;;;;;0.80;0.80;;;13.10;99.90;;;;;;5052085;28;20065;-91
2022/07/17 04:40:48;;;;;;;0.50;0.40;;;13.10;99.90;;;;;;5052343;28;20383;-89
2022/07/17 04:43:13;;;;;;;1.45;0.75;;;13.20;99.90;;;;;;5051644;28;20056;-84
2022/07/17 04:45:38;;;;;;;0.50;0.30;;;13.20;99.90;;;;;;5053038;28;20018;-89
2022/07/17 04:48:04;;;;;;;2.72;0.90;;;13.20;99.90;;;;;;5047076;28;20029;-88
2022/07/17 04:50:30;;;;;;;0.30;0.30;;;13.20;99.90;;;;;;5048474;28;20033;-88
2022/07/17 04:52:56;;;;;;;1.30;0.45;;;13.20;99.90;;;;;;5052482;28;20043;-88
2022/07/17 04:55:22;;;;;;;0.57;0.43;;;13.30;99.90;;;;;;5051800;28;20045;-87
2022/07/17 04:57:48;;;;;;;1.10;0.82;;;13.30;99.90;;;;;;5053794;28;20112;-89
2022/07/17 05:00:15;;;;;;;1.65;1.13;;;13.40;99.90;;;;;;5049237;28;20055;-89
2022/07/17 05:02:40;;;;;;;1.13;0.55;;;13.50;99.90;;;;;;5053357;28;20028;-89
2022/07/17 05:05:06;;;;;;;0.50;0.43;;;13.50;99.90;;;;;;5051406;28;20024;-87
2022/07/17 05:07:32;;;;;;;0.80;0.50;;;13.60;99.90;;;;;;5050988;28;20040;-88
2022/07/17 05:09:57;;;;;;;1.33;0.73;;;13.60;99.90;;;;;;5051427;28;20025;-89
2022/07/17 05:12:23;;;;;;;0.38;0.38;;;13.60;99.90;;;;;;5050220;28;20025;-89
2022/07/17 05:14:48;;;;;;;0.20;0.20;;;13.60;99.90;;;;;;5052971;28;20361;-89
2022/07/17 05:17:14;;;;;;;0.40;0.40;;;13.70;99.90;;;;;;5051687;28;20032;-86
2022/07/17 05:19:40;;;;;;;0.28;0.28;;;13.70;99.90;;;;;;5051523;28;20448;-89
2022/07/17 05:22:05;;;;;;;0.75;0.70;;;13.70;99.90;;;;;;5051341;28;20053;-86
2022/07/17 05:24:33;;;;;;;2.10;0.70;;;13.70;99.90;;;;;;5049912;28;20039;-88
2022/07/17 05:26:59;;;;;;;1.05;0.63;;;13.70;99.90;;;;;;5050443;28;20500;-89
2022/07/17 05:29:24;;;;;;;0.40;0.25;;;13.70;99.90;;;;;;5051329;28;20114;-90
2022/07/17 05:31:50;;;;;;;0.43;0.35;;;13.90;99.90;;;;;;5050447;28;20033;-89
2022/07/17 05:34:15;;;;;;;0.65;0.40;;;13.90;99.90;;;;;;5052138;28;20089;-86
2022/07/17 05:36:41;;;;;;;2.53;0.80;;;13.90;99.90;;;;;;5045668;28;20029;-87
2022/07/17 05:39:08;;;;;;;2.35;0.82;;;14.00;99.90;;;;;;5051924;28;20056;-88
2022/07/17 05:41:33;;;;;;;1.10;1.00;;;14.00;99.90;;;;;;5050639;28;20037;-88
2022/07/17 05:43:59;;;;;;;1.05;0.98;;;14.10;99.20;;;;;;5050560;28;20055;-88
2022/07/17 05:46:24;;;;;;;0.55;0.55;;;14.20;99.00;;;;;;5050311;28;20025;-87
2022/07/17 05:48:49;;;;;;;0.82;0.60;;;14.30;98.40;;;;;;5050702;28;20036;-88
2022/07/17 05:51:15;;;;;;;2.85;0.60;;;14.40;98.70;;;;;;5050418;28;20029;-90
2022/07/17 05:53:40;;;;;;;0.35;0.22;;;14.50;97.70;;;;;;5048611;28;20043;-89
2022/07/17 05:56:06;;;;;;;1.75;0.73;;;14.50;97.20;;;;;;5050005;28;20045;-88
2022/07/17 05:58:32;;;;;;;0.80;0.45;;;14.60;96.50;;;;;;5050434;28;20062;-90
2022/07/17 06:00:57;;;;;;;1.45;1.02;;;14.70;95.80;;;;;;5050500;28;20020;-89
2022/07/17 06:03:23;;;;;;;0.50;0.47;;;14.80;95.90;;;;;;5050039;28;20028;-89
2022/07/17 06:05:48;;;;;;;0.40;0.40;;;14.90;95.40;;;;;;5050424;28;20033;-88
2022/07/17 06:08:13;;;;;;;0.30;0.30;;;15.00;94.90;;;;;;5050341;28;20503;-89
2022/07/17 06:10:39;;;;;;;2.75;0.30;;;15.00;94.10;;;;;;5051059;28;20020;-89
2022/07/17 06:13:05;;;;;;;3.28;0.85;;;15.10;93.90;;;;;;5049118;28;20025;-89
2022/07/17 06:15:31;;;;;;;1.95;1.05;;;15.30;93.30;;;;;;5049555;28;20041;-87
2022/07/17 06:18:01;;;;;;;1.13;0.45;;;15.40;92.90;;;;;;5047387;28;20032;-89
2022/07/17 06:20:27;;;;;;;1.80;0.55;;;15.50;92.60;;;;;;5050078;28;20048;-89
2022/07/17 06:22:52;;;;;;;0.55;0.55;;;15.60;92.10;;;;;;5048867;28;20021;-87
2022/07/17 06:25:17;;;;;;;0.75;0.57;;;15.70;91.60;;;;;;5049205;28;20021;-84
2022/07/17 06:27:43;;;;;;;1.08;0.60;;;15.90;92.00;;;;;;5046308;28;20029;-86
2022/07/17 06:30:10;;;;;;;0.57;0.50;;;16.00;91.10;;;;;;5038076;28;20029;-86
2022/07/17 06:32:36;;;;;;;1.25;0.82;;;16.20;90.90;;;;;;5045720;28;20112;-82
2022/07/17 06:35:01;;;;;;;0.60;0.60;;;16.20;90.30;;;;;;5047454;28;20116;-81
2022/07/17 06:37:27;;;;;;;1.80;0.70;;;16.20;90.40;;;;;;5044288;28;20029;-83
2022/07/17 06:39:52;;;;;;;0.47;0.47;;;16.20;89.20;;;;;;5049064;28;20033;-84
2022/07/17 06:42:18;;;;;;;0.73;0.45;;;16.30;88.50;;;;;;5047335;28;20503;-83
2022/07/17 06:44:43;;;;;;;0.40;0.40;;;16.40;87.90;;;;;;5045830;28;20021;-82
2022/07/17 06:47:09;;;;;;;0.50;0.50;;;16.50;86.00;;;;;;5043835;28;20051;-84
2022/07/17 06:49:34;;;;;;;2.28;0.70;;;16.60;85.70;;;;;;5034194;28;20021;-84
2022/07/17 06:51:59;;;;;;;0.32;0.32;;;16.60;84.30;;;;;;5046031;28;20021;-83
2022/07/17 06:54:26;;;;;;;0.22;0.22;;;16.70;82.60;;;;;;5048406;28;20413;-83
2022/07/17 06:56:53;;;;;;;2.45;0.43;;;16.70;83.90;;;;;;5048931;28;20372;-83
2022/07/17 06:59:19;;;;;;;1.00;0.90;;;16.90;83.00;;;;;;5048803;28;20388;-82
2022/07/17 07:01:44;;;;;;;3.15;0.90;;;16.80;83.00;;;;;;5045359;28;20035;-81
2022/07/17 07:04:10;;;;;;;1.10;0.65;;;16.90;82.00;;;;;;5047241;28;20017;-81
2022/07/17 07:06:35;;;;;;;0.68;0.40;;;16.90;82.60;;;;;;5048432;28;20019;-82
2022/07/17 07:09:01;;;;;;;0.47;0.40;;;16.90;83.30;;;;;;5040034;28;20117;-81
2022/07/17 07:11:26;;;;;;;0.30;0.30;;;17.10;82.70;;;;;;5048709;28;20086;-80
2022/07/17 07:13:52;;;;;;;1.67;0.60;;;17.10;81.50;;;;;;5048453;28;20426;-80
2022/07/17 07:16:17;;;;;;;2.33;1.02;;;17.00;82.70;;;;;;5048385;28;20051;-84
2022/07/17 07:18:43;;;;;;;0.38;0.38;;;17.00;82.50;;;;;;5047670;28;20025;-83
2022/07/17 07:21:08;;;;;;;2.20;0.80;;;17.00;81.10;;;;;;5045527;28;20543;-82
2022/07/17 07:23:34;;;;;;;0.75;0.50;;;17.00;82.10;;;;;;5048768;28;20079;-82
2022/07/17 07:25:59;;;;;;;3.50;1.13;;;17.00;82.50;;;;;;5039754;28;20029;-81
2022/07/17 07:28:25;;;;;;;1.45;0.93;;;16.90;81.70;;;;;;5046544;28;20059;-81
2022/07/17 07:30:50;;;;;;;0.40;0.40;;;17.00;82.00;;;;;;5047952;28;20052;-82
2022/07/17 07:33:16;;;;;;;1.20;0.55;;;17.00;81.40;;;;;;5047929;28;20365;-83
2022/07/17 07:35:42;;;;;;;3.13;0.50;;;17.00;82.80;;;;;;5048399;28;20021;-83
2022/07/17 07:38:08;;;;;;;1.13;0.63;;;17.10;81.50;;;;;;5044769;28;20047;-82
2022/07/17 07:40:33;;;;;;;0.40;0.40;;;17.40;81.10;;;;;;5043912;28;20025;-81
2022/07/17 07:42:59;;;;;;;0.73;0.55;;;17.80;80.70;;;;;;5047719;28;20025;-81
2022/07/17 07:45:24;;;;;;;0.40;0.40;;;17.90;78.70;;;;;;5046727;28;20021;-82
2022/07/17 07:47:50;;;;;;;0.45;0.45;;;17.90;79.70;;;;;;5042050;28;20082;-81
2022/07/17 07:50:16;;;;;;;0.35;0.30;;;17.80;79.70;;;;;;5044179;28;20074;-80
2022/07/17 07:52:42;;;;;;;0.55;0.40;;;17.60;79.50;;;;;;5051480;28;20021;-82
2022/07/17 07:55:12;;;;;;;0.60;0.50;;;17.40;81.40;;;;;;5051661;28;20051;-81
2022/07/17 07:57:37;;;;;;;0.70;0.40;;;17.50;81.60;;;;;;5051600;28;20059;-80
2022/07/17 08:00:05;;;;;;;0.60;0.43;;;17.40;80.80;;;;;;5048314;28;20076;-82
2022/07/17 08:02:31;;;;;;;2.28;0.47;;;17.60;80.80;;;;;;5051165;28;20119;-82
2022/07/17 08:04:56;;;;;;;0.32;0.32;;;17.60;80.80;;;;;;5050568;28;20108;-83
2022/07/17 08:07:22;;;;;;;1.23;0.47;;;17.50;79.00;;;;;;5042408;28;20040;-81
2022/07/17 08:09:48;;;;;;;0.40;0.40;;;17.40;79.50;;;;;;5046831;28;20119;-81
2022/07/17 08:12:14;;;;;;;1.27;0.77;;;17.20;81.30;;;;;;5051000;28;20056;-84
2022/07/17 08:14:39;;;;;;;0.22;0.22;;;17.20;81.60;;;;;;5051108;28;20502;-81
2022/07/17 08:17:05;;;;;;;1.80;0.50;;;17.10;81.70;;;;;;5049421;28;20044;-84
2022/07/17 08:19:30;;;;;;;0.50;0.50;;;17.20;81.50;;;;;;5035344;28;20044;-83
2022/07/17 08:21:55;;;;;;;0.60;0.40;;;17.20;82.10;;;;;;5049453;28;20059;-81
2022/07/17 08:24:21;;;;;;;1.75;0.60;;;17.10;81.30;;;;;;5048210;28;20724;-82
2022/07/17 08:26:46;;;;;;;0.52;0.52;;;17.10;81.30;;;;;;5050095;28;20763;-86
2022/07/17 08:29:12;;;;;;;0.65;0.60;;;17.10;82.30;;;;;;5042261;28;20040;-78
2022/07/17 08:31:37;;;;;;;2.05;0.60;;;17.60;81.50;;;;;;5050946;28;20040;-79
2022/07/17 08:34:03;;;;;;;0.40;0.40;;;17.80;80.70;;;;;;5051045;28;20463;-78
2022/07/17 08:36:28;;;;;;;0.95;0.55;;;18.10;80.80;;;;;;5050962;28;20027;-81
2022/07/17 08:38:54;;;;;;;0.75;0.50;;;18.50;78.60;;;;;;5046787;28;20033;-82
2022/07/17 08:41:22;;;;;;;1.17;0.40;;;18.80;76.60;;;;;;5050621;28;20045;-79
2022/07/17 08:43:48;;;;;;;0.88;0.60;;;18.90;76.70;;;;;;5050673;28;20033;-82
2022/07/17 08:46:26;;;;;;;0.55;0.43;;;19.30;76.50;;;;;;5050282;28;20090;-80
2022/07/17 08:48:58;;;;;;;0.50;0.45;;;19.40;74.60;;;;;;5045599;28;20605;-80
2022/07/17 08:51:25;;;;;;;3.30;0.90;;;19.50;74.10;;;;;;5048900;28;20140;-83
2022/07/17 08:53:52;;;;;;;0.57;0.50;;;19.40;72.30;;;;;;5043567;28;20403;-80
2022/07/17 08:56:17;;;;;;;0.75;0.57;;;19.10;73.60;;;;;;5045639;28;20124;-84
2022/07/17 08:58:43;;;;;;;0.30;0.30;;;18.70;73.60;;;;;;5044892;28;20117;-83
2022/07/17 09:01:08;;;;;;;0.35;0.35;;;18.40;75.20;;;;;;5045160;28;20487;-84
2022/07/17 09:03:38;;;;;;;0.60;0.60;;;18.60;75.80;;;;;;5047929;28;20113;-81
2022/07/17 09:06:04;;;;;;;2.13;0.70;;;18.40;74.40;;;;;;5048389;28;20025;-83
2022/07/17 09:08:32;;;;;;;0.70;0.50;;;18.40;74.90;;;;;;5043860;28;20033;-86
2022/07/17 09:10:58;;;;;;;1.17;0.98;;;18.50;76.30;;;;;;5048773;28;20419;-85
2022/07/17 09:13:26;;;;;;;0.75;0.65;;;18.70;75.50;;;;;;5049959;28;20041;-79
2022/07/17 09:15:54;;;;;;;0.70;0.50;;;18.90;73.20;;;;;;5050046;28;20083;-80
2022/07/17 09:18:20;;;;;;;1.13;0.60;;;18.80;72.30;;;;;;5047470;28;20028;-78
2022/07/17 09:20:54;;;;;;;2.88;1.00;;;19.00;72.90;;;;;;5039828;28;20472;-82
2022/07/17 09:23:21;;;;;;;0.50;0.50;;;19.20;73.70;;;;;;5036696;28;20030;-78
2022/07/17 09:25:50;;;;;;;1.27;0.73;;;19.40;71.50;;;;;;5043453;28;20025;-86
2022/07/17 09:28:17;;;;;;;0.40;0.40;;;19.70;71.70;;;;;;5042575;28;20496;-81
2022/07/17 09:30:45;;;;;;;1.33;0.65;;;19.80;69.50;;;;;;5049455;28;20442;-80
2022/07/17 09:33:17;;;;;;;2.53;0.82;;;19.50;70.00;;;;;;5047816;28;20025;-78
2022/07/17 09:36:07;;;;;;;1.25;0.47;;;19.30;71.10;;;;;;5039622;28;20036;-94
2022/07/17 09:38:35;;;;;;;0.52;0.52;;;19.30;71.10;;;;;;5038298;28;20504;-85
2022/07/17 09:41:09;;;;;;;0.70;0.60;;;19.20;70.50;;;;;;5046144;28;20083;-82
2022/07/17 09:43:44;;;;;;;3.10;0.80;;;19.30;70.40;;;;;;5050010;28;20067;-83
2022/07/17 09:46:13;;;;;;;0.57;0.57;;;19.70;70.60;;;;;;5047451;28;20017;-79
2022/07/17 09:48:47;;;;;;;0.85;0.52;;;19.90;71.50;;;;;;5042086;28;20125;-85
2022/07/17 09:51:15;;;;;;;0.28;0.28;;;19.90;67.70;;;;;;5047772;28;20041;-84
2022/07/17 09:53:44;;;;;;;1.75;0.63;;;20.00;69.20;;;;;;5042746;28;20124;-78
2022/07/17 09:56:11;;;;;;;0.43;0.43;;;19.80;69.00;;;;;;5039797;28;20053;-84
2022/07/17 09:58:41;;;;;;;0.47;0.47;;;19.50;68.60;;;;;;5045344;28;20022;-79
2022/07/17 10:01:07;;;;;;;0.55;0.50;;;19.50;69.20;;;;;;5041478;28;20445;-80
2022/07/17 10:03:33;;;;;;;1.40;0.88;;;19.50;70.00;;;;;;5046481;28;20033;-82
2022/07/17 10:05:58;;;;;;;0.38;0.38;;;19.10;71.00;;;;;;5045264;28;20782;-83
2022/07/17 10:08:24;;;;;;;0.60;0.60;;;19.10;70.50;;;;;;5045435;28;20535;-87
2022/07/17 10:10:50;;;;;;;4.03;0.55;;;19.40;71.40;;;;;;5047132;28;20108;-85
2022/07/17 10:13:16;;;;;;;0.60;0.50;;;19.40;70.20;;;;;;5043113;28;20404;-79
2022/07/17 10:15:42;;;;;;;1.02;0.55;;;19.40;69.40;;;;;;5046333;28;20029;-80
2022/07/17 10:18:08;;;;;;;1.08;0.85;;;19.60;70.50;;;;;;5039070;28;20033;-80
2022/07/17 10:20:34;;;;;;;0.80;0.50;;;19.80;68.30;;;;;;5043354;28;20040;-83
2022/07/17 10:22:59;;;;;;;1.05;0.50;;;19.60;69.00;;;;;;5042100;28;20656;-81
2022/07/17 10:25:25;;;;;;;2.08;0.77;;;19.70;69.50;;;;;;5044084;28;20528;-85
2022/07/17 10:27:55;;;;;;;1.23;0.50;;;19.70;69.00;;;;;;5046825;28;20025;-84
2022/07/17 10:30:26;;;;;;;0.45;0.45;;;19.60;68.60;;;;;;5044485;28;20056;-83
2022/07/17 10:32:54;;;;;;;0.32;0.32;;;19.70;69.20;;;;;;5043557;28;20025;-85
2022/07/17 10:35:20;;;;;;;0.47;0.47;;;20.00;71.00;;;;;;5046177;28;20028;-84
2022/07/17 10:37:45;;;;;;;0.50;0.50;;;20.20;68.20;;;;;;5046417;28;20032;-77
2022/07/17 10:40:14;;;;;;;0.50;0.50;;;20.20;70.10;;;;;;5046624;28;20055;-80
2022/07/17 10:43:02;;;;;;;1.40;0.60;;;20.40;67.80;;;;;;5050896;28;20043;-84
2022/07/17 10:45:35;;;;;;;4.28;0.77;;;20.40;66.20;;;;;;5038333;28;20684;-79
2022/07/17 10:48:10;;;;;;;1.05;0.77;;;20.40;68.60;;;;;;5036533;28;20499;-81
2022/07/17 10:50:43;;;;;;;0.40;0.40;;;20.30;67.60;;;;;;5039158;28;20147;-86
2022/07/17 10:53:21;;;;;;;0.45;0.45;;;20.70;69.60;;;;;;5035604;28;20029;-86
2022/07/17 10:55:49;;;;;;;1.25;0.60;;;21.00;65.20;;;;;;5043212;28;20420;-85
2022/07/17 10:58:20;;;;;;;0.70;0.70;;;21.30;64.80;;;;;;5043841;28;20207;-86
2022/07/17 11:01:00;;;;;;;0.50;0.50;;;21.50;65.50;;;;;;5022684;28;20392;-86
2022/07/17 11:03:26;;;;;;;3.23;0.60;;;21.60;63.70;;;;;;5038676;28;20044;-84
2022/07/17 11:05:52;;;;;;;0.70;0.45;;;21.40;63.00;;;;;;5041506;28;20034;-84
2022/07/17 11:08:18;;;;;;;2.60;0.90;;;21.60;62.30;;;;;;5042024;28;20075;-83
2022/07/17 11:10:45;;;;;;;0.43;0.40;;;21.70;60.90;;;;;;5040085;28;20071;-86
2022/07/17 11:13:13;;;;;;;1.15;1.02;;;21.90;63.30;;;;;;5037041;28;20681;-81
2022/07/17 11:15:40;;;;;;;1.10;0.50;;;22.10;60.40;;;;;;5039124;28;20373;-89
2022/07/17 11:18:16;;;;;;;0.50;0.50;;;22.00;61.30;;;;;;5041863;28;20668;-86
2022/07/17 11:20:54;;;;;;;0.88;0.88;;;22.10;61.70;;;;;;5042547;28;20111;-89
2022/07/17 11:23:22;;;;;;;1.08;0.50;;;21.90;59.90;;;;;;5039429;28;20537;-88
2022/07/17 11:26:05;;;;;;;2.05;1.25;;;21.80;61.20;;;;;;5041304;28;20487;-85
2022/07/17 11:28:40;;;;;;;1.10;0.55;;;21.60;59.80;;;;;;5044642;28;20029;-79
2022/07/17 11:31:16;;;;;;;0.88;0.60;;;22.00;62.90;;;;;;5023804;28;20068;-77
2022/07/17 11:34:03;;;;;;;0.60;0.60;;;22.70;59.90;;;;;;5049250;28;20055;-78
2022/07/17 11:36:45;;;;;;;2.05;0.68;;;22.90;59.30;;;;;;5049087;28;20028;-88
2022/07/17 11:39:13;;;;;;;0.75;0.60;;;22.90;57.50;;;;;;5051630;28;20112;-86
2022/07/17 11:41:52;;;;;;;0.93;0.68;;;23.00;57.30;;;;;;5049757;28;20028;-85
2022/07/17 11:44:24;;;;;;;1.02;0.85;;;23.10;58.90;;;;;;5049047;28;20434;-87
2022/07/17 11:46:51;;;;;;;0.88;0.80;;;23.60;63.10;;;;;;5048592;28;20025;-80
2022/07/17 11:49:26;;;;;;;0.90;0.60;;;23.70;56.30;;;;;;5049433;28;20021;-88
2022/07/17 11:51:54;;;;;;;0.63;0.60;;;24.10;57.60;;;;;;5051276;28;20488;-85
2022/07/17 11:54:20;;;;;;;0.93;0.43;;;24.30;56.90;;;;;;5047201;28;20164;-84
2022/07/17 11:56:54;;;;;;;0.98;0.80;;;24.50;54.40;;;;;;5049065;28;20122;-88
2022/07/17 11:59:25;;;;;;;0.73;0.52;;;24.00;55.50;;;;;;5053925;28;20024;-89
2022/07/17 12:01:51;;;;;;;0.60;0.60;;;23.80;55.20;;;;;;5053051;28;20035;-85
2022/07/17 12:04:17;;;;;;;0.47;0.47;;;23.70;54.90;;;;;;5045037;28;20383;-80
2022/07/17 12:06:44;;;;;;;2.35;0.85;;;23.80;55.90;;;;;;5041576;28;20021;-84
2022/07/17 12:09:09;;;;;;;0.77;0.70;;;23.90;52.60;;;;;;5043925;28;20029;-86
2022/07/17 12:11:49;;;;;;;1.13;0.90;;;24.60;53.70;;;;;;5042860;28;20833;-87
2022/07/17 12:14:15;;;;;;;3.08;1.45;;;24.60;51.60;;;;;;5038001;28;20540;-86
2022/07/17 12:16:41;;;;;;;1.92;0.63;;;25.20;54.00;;;;;;5049325;28;20079;-90
2022/07/17 12:19:09;;;;;;;0.85;0.40;;;25.50;50.70;;;;;;5041861;28;20064;-85
2022/07/17 12:21:48;;;;;;;0.50;0.40;;;25.90;50.40;;;;;;5048806;28;20021;-87
2022/07/17 12:24:37;;;;;;;0.52;0.52;;;25.80;52.00;;;;;;5041106;28;20056;-84
2022/07/17 12:27:06;;;;;;;0.70;0.70;;;26.40;51.90;;;;;;5050439;28;20084;-90
2022/07/17 12:29:32;;;;;;;0.43;0.43;;;25.80;48.90;;;;;;5046716;28;20092;-89
2022/07/17 12:32:06;;;;;;;0.40;0.40;;;26.40;50.70;;;;;;5048412;28;20484;-86
2022/07/17 12:34:32;;;;;;;0.50;0.50;;;27.10;49.90;;;;;;5051640;28;20029;-89
2022/07/17 12:36:57;;;;;;;0.70;0.60;;;26.80;47.70;;;;;;5054026;28;20036;-83
2022/07/17 12:39:23;;;;;;;0.90;0.73;;;26.60;47.20;;;;;;5052544;28;20029;-89
2022/07/17 12:41:48;;;;;;;0.70;0.60;;;26.70;47.20;;;;;;5049045;28;20055;-88
2022/07/17 12:44:14;;;;;;;1.05;0.52;;;27.20;47.60;;;;;;5048297;28;20028;-91
2022/07/17 12:46:39;;;;;;;0.55;0.47;;;27.10;47.90;;;;;;5051489;28;20395;-87